Contact Us:
Email: info@sawbill.com
Phone: (218)663-7150
Fax: (218)663-7980
Mail: 4620 Sawbill Trail
Box 2129
Tofte, MN 55615


Powered by
Movable Type 3.15
 
Sawbill Weather History Archives: February 2015
Current Sawbill Weather History | « January 2015 | March 2015 »


Date

High
Temperature

Low
Temperature

Barometric
Pressure

Relative
Humidity 7AM

9 AM
Temperature

Moisture

Snow

2/28/15 22 -8 30.10 48% 10 Trace Trace
2/27/15 19 -9 30.10 65% 0 0
2/26/15 4 -16 30.28 61% -9 0
2/25/15 3 -16 30.28 61% -16 0
2/24/15 16 -13 30.00 61% -12 0
2/23/15 18 10 29.72 72% 16 .15" 2"
2/22/15 -7 -20 30.28 48% -10 0
2/21/15 8 -21 30.34 38% 2 0
2/20/15 11 1 30.02 48%% 2 .14" 3"
2/19/15 0 -22 29.88 70% 0 Trace Trace
2/18/15 -9 -24 30.16 38% -21 0
2/17/15 0 -18 30.00 44% -18 Trace Trace
2/16/15 10 -8 29.96 48% -5 Trace Trace
2/15/15 1 -6 30.08 60% -6 .1" 1"
2/14/15 -3 -24 30.18 63% -18 0
2/13/15 11 -14 30.20 68% -14 Trace Trace
2/12/15 7 -15 30.00 68% 7 .06" 1"
2/11/15 11 -16 30.38 68% -15 0
2/10/15 22 11 30.02 68% 11 .35" 4.5"
2/9/15 20 10 30.12 80% 16 0
2/8/15 13 -6 30.18 68% 10 Trace Trace
2/7/15 15 4 30.04 68% 6 .07" .5"
2/6/15 10 4 29.94 51% 10 .25" 3.5"
2/5/15 17 -6 30.06 51% 4 0
2/4/15 0 -11 30.10 74% -6 0
2/3/15 7 -6 30.12 74% -6 0
2/2/15 7 -17 30.00 74% -6 0
2/1/15 2 -16 30.06 74% -16 0
 


Home I Trip Planning I Rentals and Outfitting I Reservations I Campgrounds I Sawbill Store I Sawbill News I Contact

© 1997 - 2017, Sawbill Canoe Outfitters, Inc. I Privacy Policy